Time;durP1;ratioP1;P1;durP2;ratioP2;P2;SDS_P1;SDS_P2;PMS_P1;PMS_P2;Temp;Humidity;BMP_temperature;BMP_pressure;BME280_temperature;BME280_humidity;BME280_pressure;Samples;Min_cycle;Max_cycle;Signal;HPM_P1;HPM_P2
2024/02/20 00:00:43;;;;;;;0.00;0.00;;;;;;;5.87;100.00;101805.94;6209888;23;20763;-75
2024/02/20 00:03:08;;;;;;;0.00;0.00;;;;;;;5.97;100.00;101833.59;6216210;23;20392;-76
2024/02/20 00:05:34;;;;;;;0.00;0.00;;;;;;;5.86;100.00;101817.84;6213612;23;20009;-76
2024/02/20 00:08:02;;;;;;;0.00;0.00;;;;;;;5.90;100.00;101830.00;6215874;23;20134;-75
2024/02/20 00:10:29;;;;;;;0.00;0.00;;;;;;;5.84;100.00;101814.47;6214073;23;20028;-74
2024/02/20 00:12:57;;;;;;;0.00;0.00;;;;;;;5.92;100.00;101836.03;6190782;23;20005;-75
2024/02/20 00:15:22;;;;;;;0.00;0.00;;;;;;;5.92;100.00;101838.75;6215916;23;20012;-75
2024/02/20 00:17:48;;;;;;;0.00;0.00;;;;;;;5.93;100.00;101848.59;6211982;23;20013;-76
2024/02/20 00:20:29;;;;;;;0.00;0.00;;;;;;;5.94;100.00;101842.09;6189424;23;20012;-76
2024/02/20 00:23:14;;;;;;;0.10;0.10;;;;;;;5.81;100.00;101823.03;6192022;23;19993;-75
2024/02/20 00:25:42;;;;;;;0.00;0.00;;;;;;;5.84;100.00;101831.63;6221266;23;20039;-76
2024/02/20 00:28:17;;;;;;;0.00;0.00;;;;;;;5.75;100.00;101817.38;6185980;23;20099;-76
2024/02/20 00:30:45;;;;;;;0.00;0.00;;;;;;;5.74;100.00;101821.13;6216284;23;20001;-75
2024/02/20 00:33:13;;;;;;;0.00;0.00;;;;;;;5.76;100.00;101838.03;6216575;22;19996;-75
2024/02/20 00:35:39;;;;;;;0.00;0.00;;;;;;;5.62;100.00;101811.00;6217829;23;20454;-75
2024/02/20 00:38:07;;;;;;;0.00;0.00;;;;;;;5.75;100.00;101839.09;6244610;22;20000;-74
2024/02/20 00:40:39;;;;;;;0.00;0.00;;;;;;;5.64;100.00;101817.09;6217790;23;20016;-74
2024/02/20 00:43:05;;;;;;;0.00;0.00;;;;;;;5.71;100.00;101816.09;6190759;23;20019;-74
2024/02/20 00:45:31;;;;;;;0.00;0.00;;;;;;;5.54;100.00;101784.88;6243996;23;20015;-73
2024/02/20 00:47:56;;;;;;;0.00;0.00;;;;;;;5.57;100.00;101789.91;6213989;23;20015;-73
2024/02/20 00:50:22;;;;;;;0.00;0.00;;;;;;;5.58;100.00;101794.31;6189573;23;20446;-75
2024/02/20 00:52:57;;;;;;;0.00;0.00;;;;;;;5.64;100.00;101793.50;6242147;23;20054;-74
2024/02/20 00:55:40;;;;;;;0.10;0.10;;;;;;;5.63;100.00;101786.38;6240689;23;20082;-76
2024/02/20 00:58:05;;;;;;;0.00;0.00;;;;;;;5.63;100.00;101783.69;6240381;23;20090;-77
2024/02/20 01:00:31;;;;;;;0.10;0.10;;;;;;;5.52;100.00;101774.22;6244571;23;20004;-75
2024/02/20 01:03:16;;;;;;;0.00;0.00;;;;;;;5.38;100.00;101754.31;6190185;23;20008;-75
2024/02/20 01:05:46;;;;;;;0.00;0.00;;;;;;;5.41;100.00;101756.63;6171358;23;20008;-75
2024/02/20 01:08:12;;;;;;;0.00;0.00;;;;;;;5.57;100.00;101782.59;6217073;23;20027;-74
2024/02/20 01:10:37;;;;;;;0.00;0.00;;;;;;;5.55;100.00;101781.13;6248188;23;20012;-75
2024/02/20 01:13:03;;;;;;;0.10;0.10;;;;;;;5.56;100.00;101780.06;6218685;23;20015;-76
2024/02/20 01:15:28;;;;;;;0.00;0.00;;;;;;;5.39;100.00;101753.28;6244123;23;20019;-75
2024/02/20 01:17:54;;;;;;;0.05;0.05;;;;;;;5.38;100.00;101751.59;6193467;23;20008;-74
2024/02/20 01:20:19;;;;;;;0.00;0.00;;;;;;;5.31;100.00;101745.28;6218264;23;20004;-75
2024/02/20 01:22:45;;;;;;;0.00;0.00;;;;;;;5.35;100.00;101756.59;6214300;23;20011;-76
2024/02/20 01:25:10;;;;;;;0.00;0.00;;;;;;;5.24;100.00;101756.09;6217442;23;20289;-77
2024/02/20 01:27:36;;;;;;;0.00;0.00;;;;;;;5.17;100.00;101757.94;6216861;23;20008;-74
2024/02/20 01:30:02;;;;;;;0.00;0.00;;;;;;;5.15;100.00;101765.41;6217269;23;20442;-75
2024/02/20 01:32:28;;;;;;;0.00;0.00;;;;;;;5.11;100.00;101766.00;6195823;23;20335;-74
2024/02/20 01:34:53;;;;;;;0.00;0.00;;;;;;;5.12;100.00;101762.25;6162987;23;20328;-74
2024/02/20 01:37:18;;;;;;;0.00;0.00;;;;;;;5.13;100.00;101763.94;6164925;23;20070;-76
2024/02/20 01:39:44;;;;;;;0.00;0.00;;;;;;;5.08;100.00;101759.09;6211660;23;20000;-75
2024/02/20 01:42:09;;;;;;;0.00;0.00;;;;;;;5.10;100.00;101758.91;6188946;23;20009;-74
2024/02/20 01:44:35;;;;;;;0.05;0.05;;;;;;;5.07;100.00;101752.00;6164129;23;20016;-74
2024/02/20 01:47:04;;;;;;;0.00;0.00;;;;;;;5.05;100.00;101749.50;6162044;23;20416;-75
2024/02/20 01:49:30;;;;;;;0.00;0.00;;;;;;;5.15;100.00;101761.88;6216662;23;20008;-74
2024/02/20 01:51:58;;;;;;;0.00;0.00;;;;;;;5.16;100.00;101769.78;6210806;23;20007;-75
2024/02/20 01:54:23;;;;;;;0.00;0.00;;;;;;;5.13;100.00;101758.53;6214784;23;20442;-74
2024/02/20 01:56:54;;;;;;;0.00;0.00;;;;;;;5.06;100.00;101748.44;6187051;23;20009;-74
2024/02/20 01:59:20;;;;;;;0.00;0.00;;;;;;;5.18;100.00;101761.47;6216810;23;20000;-74
2024/02/20 02:01:45;;;;;;;0.10;0.10;;;;;;;4.96;100.00;101737.09;6211305;23;20005;-75
2024/02/20 02:04:11;;;;;;;0.00;0.00;;;;;;;5.04;100.00;101755.94;6215835;23;19992;-73
2024/02/20 02:06:38;;;;;;;0.10;0.10;;;;;;;4.98;100.00;101762.16;6166962;23;20079;-76
2024/02/20 02:09:04;;;;;;;0.00;0.00;;;;;;;4.98;100.00;101773.00;6212666;23;20004;-75
2024/02/20 02:11:29;;;;;;;0.00;0.00;;;;;;;4.92;100.00;101757.53;6213914;23;19988;-75
2024/02/20 02:13:57;;;;;;;0.00;0.00;;;;;;;4.93;100.00;101767.31;6213363;23;19996;-75
2024/02/20 02:16:23;;;;;;;0.00;0.00;;;;;;;4.91;100.00;101766.69;6216608;23;20009;-77
2024/02/20 02:18:49;;;;;;;0.00;0.00;;;;;;;4.92;100.00;101768.38;6215264;23;20494;-75
2024/02/20 02:21:15;;;;;;;0.10;0.10;;;;;;;5.01;100.00;101783.44;6188086;23;20012;-76
2024/02/20 02:23:40;;;;;;;0.10;0.10;;;;;;;4.93;100.00;101770.03;6217766;23;20079;-76
2024/02/20 02:26:11;;;;;;;0.00;0.00;;;;;;;4.89;100.00;101758.75;6163796;23;20463;-76
2024/02/20 02:28:36;;;;;;;0.10;0.10;;;;;;;5.00;100.00;101780.94;6212978;23;20023;-75
2024/02/20 02:31:02;;;;;;;0.00;0.00;;;;;;;4.77;100.00;101754.03;6214062;23;20012;-75
2024/02/20 02:33:28;;;;;;;0.10;0.10;;;;;;;4.86;100.00;101770.00;6216517;22;20013;-76
2024/02/20 02:35:53;;;;;;;0.00;0.00;;;;;;;4.80;100.00;101764.50;6217791;23;20004;-76
2024/02/20 02:38:18;;;;;;;0.00;0.00;;;;;;;4.84;100.00;101761.19;6184706;23;20324;-74
2024/02/20 02:40:44;;;;;;;0.00;0.00;;;;;;;4.96;100.00;101761.50;6189915;23;20095;-74
2024/02/20 02:43:27;;;;;;;0.00;0.00;;;;;;;4.98;100.00;101762.16;6209832;23;20016;-73
2024/02/20 02:45:52;;;;;;;0.00;0.00;;;;;;;5.08;100.00;101778.06;6190826;23;20044;-74
2024/02/20 02:48:28;;;;;;;0.10;0.10;;;;;;;5.03;100.00;101759.69;6210839;23;20013;-74
2024/02/20 02:51:01;;;;;;;0.00;0.00;;;;;;;4.92;100.00;101735.84;6189790;23;19997;-74
2024/02/20 02:53:31;;;;;;;0.00;0.00;;;;;;;4.98;100.00;101740.47;6212180;23;20043;-74
2024/02/20 02:55:59;;;;;;;0.00;0.00;;;;;;;4.91;100.00;101731.44;6215831;23;20009;-73
2024/02/20 02:58:42;;;;;;;0.00;0.00;;;;;;;4.98;100.00;101732.34;6212709;23;20065;-75
2024/02/20 03:01:09;;;;;;;0.00;0.00;;;;;;;4.89;100.00;101709.09;6214779;23;20886;-75
2024/02/20 03:03:34;;;;;;;0.00;0.00;;;;;;;4.86;100.00;101695.94;6216315;23;20012;-75
2024/02/20 03:06:06;;;;;;;0.00;0.00;;;;;;;5.17;100.00;101744.38;6217042;23;20301;-75
2024/02/20 03:08:32;;;;;;;0.00;0.00;;;;;;;5.15;100.00;101730.16;6212195;23;19981;-76
2024/02/20 03:10:58;;;;;;;0.00;0.00;;;;;;;5.10;100.00;101718.25;6217335;23;20050;-75
2024/02/20 03:13:27;;;;;;;0.00;0.00;;;;;;;4.98;100.00;101702.50;6187873;23;20035;-75
2024/02/20 03:15:55;;;;;;;0.10;0.10;;;;;;;5.10;100.00;101731.81;6212500;23;20015;-73
2024/02/20 03:18:22;;;;;;;0.10;0.10;;;;;;;4.96;100.00;101709.16;6188925;23;20012;-74
2024/02/20 03:20:48;;;;;;;0.00;0.00;;;;;;;4.93;100.00;101702.25;6212081;23;20003;-75
2024/02/20 03:23:13;;;;;;;0.00;0.00;;;;;;;4.94;100.00;101717.50;6138123;23;20004;-74
2024/02/20 03:25:48;;;;;;;0.10;0.10;;;;;;;4.94;100.00;101716.66;6190912;23;20071;-75
2024/02/20 03:28:13;;;;;;;0.10;0.10;;;;;;;4.89;100.00;101717.22;6186056;23;20005;-75
2024/02/20 03:30:40;;;;;;;0.00;0.00;;;;;;;4.95;100.00;101716.47;6162436;23;20018;-74
2024/02/20 03:33:06;;;;;;;0.00;0.00;;;;;;;4.88;100.00;101712.88;6158858;22;20005;-75
2024/02/20 03:35:32;;;;;;;0.00;0.00;;;;;;;4.91;100.00;101717.91;6187989;23;20552;-75
2024/02/20 03:37:58;;;;;;;0.00;0.00;;;;;;;4.85;100.00;101713.25;6133091;23;20470;-74
2024/02/20 03:40:23;;;;;;;0.10;0.10;;;;;;;4.81;100.00;101717.41;6161526;23;20029;-74
2024/02/20 03:42:50;;;;;;;0.00;0.00;;;;;;;4.81;100.00;101709.25;6140782;23;20092;-74
2024/02/20 03:45:16;;;;;;;0.00;0.00;;;;;;;4.87;100.00;101711.19;6160863;23;20012;-74
2024/02/20 03:47:41;;;;;;;0.00;0.00;;;;;;;4.95;100.00;101713.75;6220388;23;20078;-74
2024/02/20 03:50:07;;;;;;;0.00;0.00;;;;;;;5.06;100.00;101718.63;6162064;23;20087;-74
2024/02/20 03:52:33;;;;;;;0.10;0.10;;;;;;;5.02;100.00;101690.25;6160619;23;20000;-74
2024/02/20 03:54:59;;;;;;;0.10;0.10;;;;;;;5.19;100.00;101708.91;6187793;23;20008;-74
2024/02/20 03:57:24;;;;;;;0.00;0.00;;;;;;;5.17;100.00;101695.56;6165352;23;20115;-75
2024/02/20 03:59:50;;;;;;;0.00;0.00;;;;;;;5.17;100.00;101692.84;6165312;23;20004;-74
2024/02/20 04:02:15;;;;;;;0.00;0.00;;;;;;;5.12;100.00;101686.34;6136771;23;20332;-74
2024/02/20 04:04:43;;;;;;;0.00;0.00;;;;;;;5.00;100.00;101673.31;6186537;23;20032;-75
2024/02/20 04:07:11;;;;;;;0.00;0.00;;;;;;;5.09;100.00;101686.75;6213483;23;20000;-74
2024/02/20 04:09:36;;;;;;;0.00;0.00;;;;;;;5.11;100.00;101681.94;6189120;23;20027;-76
2024/02/20 04:12:02;;;;;;;0.00;0.00;;;;;;;5.21;100.00;101690.56;6162260;23;20001;-74
2024/02/20 04:14:28;;;;;;;0.00;0.00;;;;;;;5.16;100.00;101687.63;6192940;23;20052;-74
2024/02/20 04:16:53;;;;;;;0.00;0.00;;;;;;;5.18;100.00;101680.09;6164850;23;20012;-75
2024/02/20 04:19:19;;;;;;;0.10;0.10;;;;;;;5.26;100.00;101677.25;6164043;23;20458;-73
2024/02/20 04:21:45;;;;;;;0.00;0.00;;;;;;;5.22;100.00;101678.69;6217316;23;20011;-76
2024/02/20 04:24:11;;;;;;;0.00;0.00;;;;;;;5.21;100.00;101663.44;6191443;23;20036;-75
2024/02/20 04:26:37;;;;;;;0.10;0.10;;;;;;;5.34;100.00;101674.34;6189553;23;20019;-74
2024/02/20 04:29:03;;;;;;;0.00;0.00;;;;;;;5.41;100.00;101672.50;6190536;23;20442;-76
2024/02/20 04:31:30;;;;;;;0.00;0.00;;;;;;;5.54;100.00;101681.78;6162474;23;20005;-73
2024/02/20 04:33:57;;;;;;;0.00;0.00;;;;;;;5.59;100.00;101681.97;6205228;23;20046;-75
2024/02/20 04:36:23;;;;;;;0.10;0.10;;;;;;;5.61;100.00;101674.50;6197139;23;20426;-74
2024/02/20 04:38:52;;;;;;;0.08;0.08;;;;;;;5.65;100.00;101670.34;6249747;22;20008;-76
2024/02/20 04:41:25;;;;;;;0.00;0.00;;;;;;;5.76;100.00;101680.59;6196131;23;20008;-75
2024/02/20 04:43:50;;;;;;;0.00;0.00;;;;;;;5.76;100.00;101652.63;6218860;23;20075;-75
2024/02/20 04:46:16;;;;;;;0.00;0.00;;;;;;;5.96;100.00;101677.13;6217098;23;20008;-75
2024/02/20 04:48:49;;;;;;;0.00;0.00;;;;;;;5.87;100.00;101648.47;6246813;23;20070;-75
2024/02/20 04:51:14;;;;;;;0.10;0.10;;;;;;;6.07;100.00;101671.09;6219013;23;20008;-75
2024/02/20 04:53:40;;;;;;;0.00;0.00;;;;;;;6.20;100.00;101683.06;6193592;23;20500;-74
2024/02/20 04:56:06;;;;;;;0.00;0.00;;;;;;;6.18;100.00;101671.56;6222162;23;20000;-75
2024/02/20 04:58:31;;;;;;;0.00;0.00;;;;;;;6.25;100.00;101683.25;6218481;23;20079;-74
2024/02/20 05:00:56;;;;;;;0.00;0.00;;;;;;;6.19;100.00;101675.94;6194996;23;20032;-74
2024/02/20 05:03:22;;;;;;;0.00;0.00;;;;;;;6.21;100.00;101676.59;6221170;23;20323;-75
2024/02/20 05:05:47;;;;;;;0.00;0.00;;;;;;;6.08;100.00;101669.25;6221551;23;20008;-74
2024/02/20 05:08:15;;;;;;;0.10;0.10;;;;;;;5.90;100.00;101661.66;6198982;23;20000;-74
2024/02/20 05:10:41;;;;;;;0.00;0.00;;;;;;;5.81;100.00;101662.88;6222528;23;19996;-76
2024/02/20 05:13:07;;;;;;;0.00;0.00;;;;;;;5.58;100.00;101655.91;6222853;23;20008;-75
2024/02/20 05:15:32;;;;;;;0.00;0.00;;;;;;;5.39;100.00;101647.47;6222205;23;20011;-75
2024/02/20 05:17:58;;;;;;;0.00;0.00;;;;;;;5.26;100.00;101633.84;6220049;23;20429;-75
2024/02/20 05:20:24;;;;;;;0.10;0.10;;;;;;;5.17;100.00;101651.31;6197469;23;20008;-73
2024/02/20 05:22:49;;;;;;;0.00;0.00;;;;;;;5.13;100.00;101658.19;6221515;23;20019;-73
2024/02/20 05:25:15;;;;;;;0.10;0.10;;;;;;;5.04;100.00;101657.50;6196322;23;20419;-75
2024/02/20 05:27:40;;;;;;;0.10;0.10;;;;;;;4.92;100.00;101651.81;6194322;23;20046;-74
2024/02/20 05:30:16;;;;;;;0.00;0.00;;;;;;;4.86;100.00;101650.72;6245216;22;20004;-73
2024/02/20 05:32:42;;;;;;;0.10;0.10;;;;;;;4.84;100.00;101647.34;6193629;23;20063;-73
2024/02/20 05:35:08;;;;;;;0.10;0.10;;;;;;;4.85;100.00;101661.75;6214186;23;20052;-73
2024/02/20 05:37:36;;;;;;;0.00;0.00;;;;;;;4.83;100.00;101667.38;6187333;23;20019;-74
2024/02/20 05:40:04;;;;;;;0.00;0.00;;;;;;;4.82;100.00;101662.13;6213748;23;20063;-73
2024/02/20 05:42:32;;;;;;;0.10;0.10;;;;;;;4.75;100.00;101653.16;6211905;23;20015;-76
2024/02/20 05:44:57;;;;;;;0.10;0.10;;;;;;;4.73;100.00;101653.31;6189800;23;20012;-74
2024/02/20 05:47:23;;;;;;;0.00;0.00;;;;;;;4.68;100.00;101647.66;6188130;23;20028;-76
2024/02/20 05:49:51;;;;;;;0.00;0.00;;;;;;;4.70;100.00;101646.44;6213229;23;20008;-73
2024/02/20 05:52:16;;;;;;;0.10;0.10;;;;;;;4.67;100.00;101635.13;6215608;23;20005;-76
2024/02/20 05:54:42;;;;;;;0.10;0.10;;;;;;;4.74;100.00;101640.63;6212669;23;20015;-75
2024/02/20 05:57:07;;;;;;;0.00;0.00;;;;;;;4.86;100.00;101644.44;6211553;23;20459;-74
2024/02/20 05:59:36;;;;;;;0.00;0.00;;;;;;;4.90;100.00;101629.47;6210150;23;20355;-74
2024/02/20 06:02:02;;;;;;;0.00;0.00;;;;;;;5.02;100.00;101627.03;6187823;23;20092;-74
2024/02/20 06:04:27;;;;;;;0.10;0.10;;;;;;;5.18;100.00;101624.00;6213193;23;20293;-74
2024/02/20 06:06:53;;;;;;;0.08;0.08;;;;;;;5.37;100.00;101629.72;6213675;23;20383;-74
2024/02/20 06:09:21;;;;;;;0.00;0.00;;;;;;;5.37;100.00;101614.28;6213517;23;20013;-75
2024/02/20 06:11:47;;;;;;;0.00;0.00;;;;;;;5.50;100.00;101612.66;6214879;23;20018;-74
2024/02/20 06:14:26;;;;;;;;;;;;;;;;;;;;;
2024/02/20 06:17:01;;;;;;;;;;;;;;;;;;;;;
2024/02/20 06:19:27;;;;;;;0.00;0.00;;;;;;;5.76;100.00;101614.63;6214689;23;20087;-74
2024/02/20 06:21:52;;;;;;;0.00;0.00;;;;;;;5.76;100.00;101611.91;6162776;23;20035;-74
2024/02/20 06:24:18;;;;;;;0.00;0.00;;;;;;;5.74;100.00;101603.16;6188951;23;19996;-75
2024/02/20 06:26:43;;;;;;;0.00;0.00;;;;;;;5.66;100.00;101589.75;6167235;23;20091;-74
2024/02/20 06:29:11;;;;;;;0.00;0.00;;;;;;;5.73;100.00;101602.28;6213167;23;20013;-76
2024/02/20 06:31:36;;;;;;;0.00;0.00;;;;;;;5.67;100.00;101589.53;6212685;23;20011;-73
2024/02/20 06:34:03;;;;;;;0.10;0.10;;;;;;;5.64;100.00;101589.13;6212268;23;20024;-74
2024/02/20 06:36:29;;;;;;;0.10;0.10;;;;;;;5.59;100.00;101587.00;6213511;23;20035;-74
2024/02/20 06:38:55;;;;;;;0.00;0.00;;;;;;;5.49;100.00;101575.72;6213124;23;20476;-75
2024/02/20 06:41:20;;;;;;;0.00;0.00;;;;;;;5.62;100.00;101605.59;6213816;23;20067;-75
2024/02/20 06:43:45;;;;;;;0.00;0.00;;;;;;;5.56;100.00;101601.00;6216640;23;20023;-75
2024/02/20 06:46:11;;;;;;;0.00;0.00;;;;;;;5.53;100.00;101604.94;6212957;23;20122;-74
2024/02/20 06:48:46;;;;;;;0.10;0.10;;;;;;;5.49;100.00;101606.41;6189009;23;19988;-75
2024/02/20 06:51:12;;;;;;;0.10;0.10;;;;;;;5.52;100.00;101605.16;6215414;23;20056;-76
2024/02/20 06:53:37;;;;;;;0.10;0.10;;;;;;;5.53;100.00;101601.41;6186366;23;20017;-75
2024/02/20 06:56:03;;;;;;;0.00;0.00;;;;;;;5.60;100.00;101607.69;6164880;23;20040;-74
2024/02/20 06:58:28;;;;;;;0.00;0.00;;;;;;;5.51;100.00;101592.63;6210387;23;20004;-74
2024/02/20 07:00:54;;;;;;;0.10;0.10;;;;;;;5.71;100.00;101617.97;6214585;23;20011;-75
2024/02/20 07:03:20;;;;;;;0.10;0.10;;;;;;;5.65;100.00;101598.94;6212856;23;20040;-75
2024/02/20 07:05:46;;;;;;;0.00;0.00;;;;;;;5.89;100.00;101617.38;6215418;23;20004;-73
2024/02/20 07:08:12;;;;;;;0.00;0.00;;;;;;;5.94;100.00;101606.75;6214633;23;20008;-75
2024/02/20 07:10:38;;;;;;;0.00;0.00;;;;;;;5.92;100.00;101602.53;6212370;23;20015;-74
2024/02/20 07:13:21;;;;;;;;;;;;;;;;;;;;;
2024/02/20 07:15:49;;;;;;;0.00;0.00;;;;;;;6.03;100.00;101606.56;6215132;23;20087;-75
2024/02/20 07:18:17;;;;;;;0.00;0.00;;;;;;;6.24;100.00;101624.56;6212190;23;20068;-75
2024/02/20 07:20:51;;;;;;;0.00;0.00;;;;;;;6.24;100.00;101608.25;6190028;23;20013;-78
2024/02/20 07:23:17;;;;;;;0.00;0.00;;;;;;;6.17;100.00;101586.50;6194018;23;20005;-78
2024/02/20 07:25:43;;;;;;;0.00;0.00;;;;;;;6.32;100.00;101605.31;6164233;23;20054;-79
2024/02/20 07:28:28;;;;;;;0.00;0.00;;;;;;;6.31;100.00;101598.25;6218353;23;20039;-81
2024/02/20 07:30:53;;;;;;;0.00;0.00;;;;;;;6.24;100.00;101597.41;6191861;23;20019;-77
2024/02/20 07:33:29;;;;;;;0.00;0.00;;;;;;;6.16;100.00;101584.84;6217346;23;20319;-75
2024/02/20 07:35:54;;;;;;;0.00;0.00;;;;;;;6.43;100.00;101625.63;6212671;23;20004;-77
2024/02/20 07:38:20;;;;;;;0.00;0.00;;;;;;;6.52;100.00;101634.41;6217333;23;20000;-77
2024/02/20 07:40:45;;;;;;;0.10;0.10;;;;;;;6.54;100.00;101629.56;6189412;23;20023;-76
2024/02/20 07:43:11;;;;;;;0.00;0.00;;;;;;;6.44;100.00;101602.84;6188252;23;20032;-75
2024/02/20 07:45:37;;;;;;;0.00;0.00;;;;;;;6.63;100.00;101625.63;6190690;23;20059;-73
2024/02/20 07:48:13;;;;;;;0.03;0.03;;;;;;;6.58;100.00;101609.09;6214993;23;20087;-75
2024/02/20 07:50:39;;;;;;;0.00;0.00;;;;;;;6.75;100.00;101621.19;6216111;23;20035;-74
2024/02/20 07:53:10;;;;;;;0.10;0.10;;;;;;;6.74;100.00;101614.06;6213534;23;20005;-76
2024/02/20 07:55:44;;;;;;;0.00;0.00;;;;;;;6.84;100.00;101618.25;6213506;23;19996;-73
2024/02/20 07:58:19;;;;;;;0.00;0.00;;;;;;;6.93;100.00;101628.69;6213403;23;20028;-77
2024/02/20 08:00:44;;;;;;;;;;;;;;;7.00;100.00;101612.38;6216922;23;20590;-77
2024/02/20 08:03:30;;;;;;;0.10;0.10;;;;;;;6.85;100.00;101570.97;6216585;23;20028;-77
2024/02/20 08:06:07;;;;;;;0.00;0.00;;;;;;;7.08;100.00;101598.53;6215409;23;19993;-77
2024/02/20 08:08:55;;;;;;;0.00;0.00;;;;;;;6.90;100.00;101563.03;6189533;23;20518;-78
2024/02/20 08:11:41;;;;;;;0.00;0.00;;;;;;;7.28;100.00;101613.94;6170960;23;20075;-77
2024/02/20 08:14:16;;;;;;;0.00;0.00;;;;;;;7.12;100.00;101588.88;6196368;23;20054;-77
2024/02/20 08:16:42;;;;;;;0.00;0.00;;;;;;;7.20;100.00;101581.53;6227898;23;20004;-78
2024/02/20 08:19:09;;;;;;;0.00;0.00;;;;;;;7.22;100.00;101565.84;6197860;23;20020;-77
2024/02/20 08:21:34;;;;;;;0.00;0.00;;;;;;;7.34;100.00;101583.16;6201660;23;20034;-78
2024/02/20 08:24:49;;;;;;;0.00;0.00;;;;;;;7.41;100.00;101583.97;6201690;23;20012;-79
2024/02/20 08:30:10;;;;;;;0.00;0.00;;;;;;;7.57;100.00;101604.41;6177671;23;20315;-77
2024/02/20 08:32:46;;;;;;;;;;;;;;;;;;;;;
2024/02/20 08:35:14;;;;;;;0.00;0.00;;;;;;;7.45;100.00;101601.53;6218779;22;20383;-78
2024/02/20 08:37:48;;;;;;;0.00;0.00;;;;;;;7.40;100.00;101606.78;6214786;23;20017;-78
2024/02/20 08:40:29;;;;;;;;;;;;;;;;;;;;;
2024/02/20 08:42:55;;;;;;;0.00;0.00;;;;;;;7.28;100.00;101556.81;6217786;23;20096;-77
2024/02/20 08:45:20;;;;;;;0.10;0.10;;;;;;;7.48;100.00;101559.44;6192866;23;20431;-77
2024/02/20 08:47:46;;;;;;;0.00;0.00;;;;;;;7.55;100.00;101553.94;6215907;23;20023;-79
2024/02/20 08:50:16;;;;;;;0.00;0.00;;;;;;;7.78;100.00;101580.63;6218835;23;20001;-78
2024/02/20 08:52:42;;;;;;;0.00;0.00;;;;;;;7.86;100.00;101564.84;6169450;23;20367;-78
2024/02/20 08:55:10;;;;;;;0.00;0.00;;;;;;;7.80;100.00;101541.22;6216240;23;20112;-78
2024/02/20 08:58:04;;;;;;;;;;;;;;;;;;;;;
2024/02/20 09:00:57;;;;;;;0.00;0.00;;;;;;;8.14;100.00;101547.25;6193004;23;20440;-78
2024/02/20 09:03:46;;;;;;;0.00;0.00;;;;;;;8.16;100.00;101526.09;6156275;23;20012;-77
2024/02/20 09:06:12;;;;;;;0.00;0.00;;;;;;;8.40;100.00;101550.81;6176533;23;20005;-78
2024/02/20 09:08:55;;;;;;;0.00;0.00;;;;;;;8.55;100.00;101564.94;6197769;23;20007;-77
2024/02/20 09:11:33;;;;;;;;;;;;;;;;;;;;;
2024/02/20 09:13:58;;;;;;;0.00;0.00;;;;;;;8.55;100.00;101537.69;6195920;23;20020;-78
2024/02/20 09:16:24;;;;;;;0.00;0.00;;;;;;;8.63;100.00;101544.75;6192711;23;19988;-76
2024/02/20 09:19:03;;;;;;;0.00;0.00;;;;;;;8.67;100.00;101556.03;6190993;23;20004;-77
2024/02/20 09:21:31;;;;;;;0.00;0.00;;;;;;;8.59;100.00;101553.63;6219952;23;20312;-79
2024/02/20 09:23:56;;;;;;;0.00;0.00;;;;;;;8.67;100.00;101578.69;6165967;23;20442;-79
2024/02/20 09:26:23;;;;;;;0.00;0.00;;;;;;;8.43;100.00;101539.47;6167453;23;20013;-78
2024/02/20 09:29:21;;;;;;;;;;;;;;;;;;;;;
2024/02/20 09:32:17;;;;;;;;;;;;;;;;;;;;;
2024/02/20 09:34:56;;;;;;;;;;;;;;;;;;;;;
2024/02/20 09:37:22;;;;;;;0.00;0.00;;;;;;;8.65;100.00;101556.25;6223772;23;20032;-78
2024/02/20 09:40:00;;;;;;;;;;;;;;;;;;;;;
2024/02/20 09:42:50;;;;;;;0.10;0.10;;;;;;;8.96;100.00;101531.81;6247996;23;20051;-78
2024/02/20 09:45:23;;;;;;;0.00;0.00;;;;;;;8.99;100.00;101496.69;6236733;23;20011;-76
2024/02/20 09:47:50;;;;;;;0.10;0.10;;;;;;;9.16;100.00;101493.34;6265061;22;20011;-76
2024/02/20 09:50:19;;;;;;;0.00;0.00;;;;;;;9.31;100.00;101490.22;6267168;22;20011;-77
2024/02/20 09:55:55;;;;;;;;;;;;;;;;;;;;;
2024/02/20 09:58:23;;;;;;;0.00;0.00;;;;;;;9.49;100.00;101484.69;6251501;23;20027;-77
2024/02/20 10:01:02;;;;;;;;;;;;;;;;;;;;;
2024/02/20 10:03:49;;;;;;;0.00;0.00;;;;;;;9.73;100.00;101493.78;6251288;22;20024;-77
2024/02/20 10:06:35;;;;;;;0.00;0.00;;;;;;;9.61;100.00;101447.31;6224714;23;20034;-77
2024/02/20 10:09:03;;;;;;;0.00;0.00;;;;;;;9.93;100.00;101488.00;6218751;23;20007;-79
2024/02/20 10:11:37;;;;;;;0.00;0.00;;;;;;;9.65;100.00;101441.38;6248450;22;20099;-77
2024/02/20 10:14:05;;;;;;;0.00;0.00;;;;;;;9.80;100.00;101471.81;6219402;23;20000;-77
2024/02/20 10:16:34;;;;;;;0.00;0.00;;;;;;;9.88;100.00;101468.72;6197986;23;20008;-77
2024/02/20 10:19:06;;;;;;;0.00;0.00;;;;;;;10.13;100.00;101481.34;6220797;23;20453;-78
2024/02/20 10:21:32;;;;;;;0.00;0.00;;;;;;;10.28;100.00;101484.44;6224370;23;20034;-78
2024/02/20 10:24:16;;;;;;;0.00;0.00;;;;;;;10.52;100.00;101492.66;6194583;23;20121;-78
2024/02/20 10:26:44;;;;;;;0.10;0.10;;;;;;;10.65;100.00;101502.53;6223397;23;20023;-78
2024/02/20 10:29:32;;;;;;;0.00;0.00;;;;;;;10.90;100.00;101483.06;6221681;23;20102;-78
2024/02/20 10:32:38;;;;;;;0.00;0.00;;;;;;;11.03;100.00;101478.41;6197776;23;20098;-78
2024/02/20 10:35:26;;;;;;;0.00;0.00;;;;;;;10.99;100.00;101478.03;6200548;23;20008;-78
2024/02/20 10:38:02;;;;;;;0.00;0.00;;;;;;;10.97;100.00;101459.13;6220013;23;20012;-77
2024/02/20 10:40:31;;;;;;;0.00;0.00;;;;;;;10.90;100.00;101433.81;6222622;23;20069;-79
2024/02/20 10:43:06;;;;;;;0.00;0.00;;;;;;;11.38;100.00;101482.91;6219390;23;19995;-77
2024/02/20 10:45:32;;;;;;;0.00;0.00;;;;;;;11.28;100.00;101478.88;6222976;23;20011;-78
2024/02/20 10:48:04;;;;;;;0.00;0.00;;;;;;;11.27;100.00;101458.06;6246859;23;20000;-77
2024/02/20 10:51:10;;;;;;;0.00;0.00;;;;;;;11.34;100.00;101475.16;6247433;23;20134;-79
2024/02/20 10:53:39;;;;;;;0.00;0.00;;;;;;;11.17;100.00;101452.41;6245875;23;20000;-80
2024/02/20 10:56:37;;;;;;;0.00;0.00;;;;;;;11.28;100.00;101458.88;6193729;23;20083;-78
2024/02/20 10:58:59;;;;;;;0.00;0.00;;;;;;;11.54;100.00;101479.34;6240244;22;20091;-78
2024/02/20 11:01:26;;;;;;;0.00;0.00;;;;;;;11.68;100.00;101463.41;6219696;23;20077;-78
2024/02/20 11:04:15;;;;;;;0.00;0.00;;;;;;;11.57;100.00;101440.50;6220606;23;20004;-78
2024/02/20 11:06:47;;;;;;;0.00;0.00;;;;;;;11.35;100.00;101423.97;6221329;22;20000;-79
2024/02/20 11:09:15;;;;;;;0.00;0.00;;;;;;;11.72;100.00;101477.47;6221549;23;20004;-78
2024/02/20 11:11:41;;;;;;;0.00;0.00;;;;;;;11.50;100.00;101417.91;6169398;23;20032;-77
2024/02/20 11:14:07;;;;;;;0.10;0.10;;;;;;;11.77;100.00;101420.84;6219821;23;20399;-78
2024/02/20 11:16:37;;;;;;;0.00;0.00;;;;;;;12.32;100.00;101410.16;6217684;23;20000;-78
2024/02/20 11:19:03;;;;;;;0.00;0.00;;;;;;;13.11;100.00;101403.38;6246482;23;20064;-78
2024/02/20 11:21:30;;;;;;;0.00;0.00;;;;;;;14.57;91.57;101395.91;6219173;23;20073;-78
2024/02/20 11:23:57;;;;;;;0.00;0.00;;;;;;;15.45;79.04;101406.06;6194401;23;20012;-78
2024/02/20 11:26:27;;;;;;;0.00;0.00;;;;;;;14.67;80.01;101395.97;6217242;23;20038;-77
2024/02/20 11:29:23;;;;;;;0.00;0.00;;;;;;;14.31;83.88;101398.56;6195504;23;20015;-77
2024/02/20 11:32:22;;;;;;;;;;;;;;;;;;;;;
2024/02/20 11:34:55;;;;;;;0.00;0.00;;;;;;;14.60;80.77;101409.13;6214526;22;20099;-78
2024/02/20 11:37:23;;;;;;;0.00;0.00;;;;;;;15.70;77.71;101410.75;6188924;23;20004;-78
2024/02/20 11:39:48;;;;;;;0.00;0.00;;;;;;;16.14;72.65;101384.50;6188140;23;20055;-79
2024/02/20 11:42:14;;;;;;;0.00;0.00;;;;;;;18.09;64.86;101387.09;6190512;23;20437;-78
2024/02/20 11:44:45;;;;;;;0.00;0.00;;;;;;;18.70;56.69;101406.88;6188089;23;20423;-78
2024/02/20 11:47:33;;;;;;;;;;;;;;;;;;;;;
2024/02/20 11:50:03;;;;;;;0.00;0.00;;;;;;;18.83;53.62;101378.44;6216119;23;20111;-79
2024/02/20 11:52:32;;;;;;;0.00;0.00;;;;;;;19.41;52.43;101382.84;6216749;23;19988;-78
2024/02/20 11:55:10;;;;;;;0.00;0.00;;;;;;;22.19;46.43;101409.38;6215662;23;20087;-79
2024/02/20 11:57:36;;;;;;;0.00;0.00;;;;;;;23.27;41.81;101422.94;6220187;23;20004;-78
2024/02/20 12:00:19;;;;;;;0.00;0.00;;;;;;;23.03;42.38;101387.94;6214228;23;20005;-78
2024/02/20 12:03:14;;;;;;;0.00;0.00;;;;;;;22.24;42.38;101356.28;6216517;23;20011;-78